• Join FlightAware (Why Join?)
  • Login
  • US Flag 
04:13PM EDT


 

Airport Tracker/Info


-or-


 

Live Flight TrackerFlight Track Log ✈ EGF2907 ✈ 28-Oct-2013 ✈ KMDT - KORD

Flight Track Log - Related Links

Times and Time Zones

All times are in EDT time to prevent confusion due to time zone crossing. See the EGF2907 flight status page for this flight to view local times or setup timezone preferences in your user account.

Time Position Orientation Groundspeed Altitude Reporting Facility
EDT Latitude Longitude Course Direction KTS MPH feet Rate Location/Type
01:05PM 40.3419 -76.9392 320° Northwest 230 265 6,700  Level New York Center
01:06PM 40.2924 -77.2312 318° Northwest  Level Estimated
01:06PM 40.3736 -77.0128 299° West 247 284 8,900  Level New York Center
01:07PM 40.3169 -77.3486 308° West  Level Estimated
01:07PM 40.4150 -77.0983 302° West 253 291 11,000  Level New York Center
01:08PM 40.3413 -77.4660 279° West  Level Estimated
01:08PM 40.4483 -77.1750 300° West 265 305 12,300  Level New York Center
01:09PM 40.4130 -77.5433 321° Northwest  Level FlightAware Approximate
01:09PM 40.4972 -77.2750 303° West 291 335 13,400  Level New York Center
01:10PM 40.5400 -77.3639 302° West 311 358 14,300 900 Climbing New York Center
01:13PM 40.6372 -77.5764 301° West 342 394 16,200 960 Climbing Cleveland Center
01:14PM 40.6497 -77.7289 276° West 350 403 17,400 900 Climbing Cleveland Center
01:15PM 40.6614 -77.8539 277° West 348 400 18,100 720 Climbing Cleveland Center
01:16PM 40.6803 -77.9800 281° West 351 404 19,000 480 Climbing Cleveland Center
01:17PM 40.6986 -78.1125 280° West 368 423 19,100 540 Climbing Cleveland Center
01:18PM 40.7172 -78.2456 280° West 371 427 20,200 960 Climbing Cleveland Center
01:19PM 40.7353 -78.3794 280° West 371 427 21,100 960 Climbing Cleveland Center
01:20PM 40.7575 -78.5400 280° West 371 427 22,300 1,020 Climbing Cleveland Center
01:21PM 40.7758 -78.6739 280° West 370 426 23,300 960 Climbing Cleveland Center
01:22PM 40.7931 -78.8094 280° West 372 428 24,300 960 Climbing Cleveland Center
01:23PM 40.8125 -78.9536 280° West 369 425 25,300 960 Climbing Cleveland Center
01:24PM 40.8303 -79.0861 280° West 367 422 26,300 1,020 Climbing Cleveland Center
01:25PM 40.8467 -79.2172 279° West 364 419 27,500 1,500 Climbing Cleveland Center
01:26PM 40.8622 -79.3406 280° West 343 395 29,400 1,860 Climbing Cleveland Center
01:27PM 40.8769 -79.4572 280° West 326 375 31,400 1,620 Climbing Cleveland Center
01:28PM 40.8919 -79.5678 280° West 311 358 32,800 1,020 Climbing Cleveland Center
01:29PM 40.9067 -79.7019 278° West 311 358 33,600 540 Climbing Cleveland Center
01:30PM 40.9222 -79.8208 280° West 327 376 34,000 180 Climbing Cleveland Center
01:31PM 40.9372 -79.9483 279° West 351 404 34,000  Level Cleveland Center
01:32PM 40.9544 -80.0825 280° West 372 428 34,000  Level Cleveland Center
01:33PM 40.9703 -80.2219 279° West 384 442 34,000  Level Cleveland Center
01:34PM 40.9906 -80.3897 279° West 388 447 34,000  Level Cleveland Center
01:35PM 41.0081 -80.5294 279° West 387 445 34,000  Level Cleveland Center
01:36PM 41.0236 -80.6706 278° West 390 449 34,000  Level Cleveland Center
01:37PM 41.0397 -80.8083 279° West 384 442 34,000  Level Cleveland Center
01:38PM 41.0533 -80.9497 277° West 387 445 34,000  Level Cleveland Center
01:39PM 41.0619 -81.1081 274° West 387 445 34,000  Level Cleveland Center
01:40PM 41.0711 -81.2511 275° West 384 442 34,000  Level Cleveland Center
01:41PM 41.0797 -81.3931 275° West 384 442 34,000  Level Cleveland Center
01:43PM 41.0894 -81.5375 275° West 387 445 34,000  Level Cleveland Center
01:44PM 41.0992 -81.7044 274° West 383 441 34,000  Level Cleveland Center
01:45PM 41.1072 -81.8481 274° West 383 441 34,000  Level Cleveland Center
01:46PM 41.1158 -81.9908 275° West 383 441 34,000  Level Cleveland Center
01:47PM 41.1233 -82.1347 274° West 385 443 34,000  Level Cleveland Center
01:48PM 41.1311 -82.2764 274° West 384 442 34,000  Level Cleveland Center
01:49PM 41.1394 -82.4189 274° West 383 441 34,000  Level Cleveland Center
01:50PM 41.1456 -82.5608 273° West 383 441 34,000  Level Cleveland Center
01:51PM 41.1533 -82.7025 274° West 381 438 34,000  Level Cleveland Center
01:52PM 41.1600 -82.8431 274° West 380 437 34,000  Level Cleveland Center
01:53PM 41.1689 -83.0097 274° West 383 441 34,000  Level Cleveland Center
01:54PM 41.1756 -83.1503 274° West 381 438 34,000  Level Cleveland Center
01:55PM 41.1831 -83.2981 274° West 384 442 34,000  Level Cleveland Center
01:56PM 41.1886 -83.4389 273° West 383 441 34,000  Level Cleveland Center
01:57PM 41.1956 -83.5814 274° West 387 445 34,000  Level Cleveland Center
01:58PM 41.2025 -83.7219 274° West 384 442 34,000  Level Cleveland Center
01:59PM 41.2086 -83.8636 273° West 383 441 34,000  Level Cleveland Center
02:00PM 41.2136 -83.9722 274° West 389 448 34,000  Level Chicago Center
02:01PM 41.2203 -84.1433 273° West 388 447 34,000  Level Chicago Center
02:02PM 41.2250 -84.2872 273° West 390 449 34,000  Level Chicago Center
02:03PM 41.2292 -84.4297 272° West 387 445 34,000  Level Chicago Center
02:04PM 41.2325 -84.5722 272° West 387 445 34,000  Level Chicago Center
02:05PM 41.2378 -84.7106 273° West 379 436 34,000  Level Chicago Center
02:06PM 41.2408 -84.8486 272° West 376 433 34,000 -540 Level Chicago Center
02:07PM 41.2450 -84.9869 272° West 373 429 32,900 -1,980 Descending Chicago Center
02:08PM 41.2500 -85.1581 272° West 382 440 30,000 -1,920 Descending Chicago Center
02:09PM 41.2547 -85.3011 273° West 384 442 29,000 -480 Descending Chicago Center
02:10PM 41.2597 -85.4494 273° West 393 452 29,000 -720 Level Chicago Center
02:11PM 41.2656 -85.5983 273° West 399 459 27,500 -1,500 Descending Chicago Center
02:12PM 41.2722 -85.7442 274° West 396 456 25,900 -1,260 Descending Chicago Center
02:13PM 41.2775 -85.8953 273° West 405 466 25,000 -720 Descending Chicago Center
02:14PM 41.2953 -86.0419 279° West 403 464 24,500 -1,200 Descending Chicago Center
02:15PM 41.3378 -86.2100 289° West 398 458 22,600 -1,740 Descending Chicago Center
02:16PM 41.3692 -86.3431 287° West 380 437 21,000 -1,560 Descending Chicago Center
02:17PM 41.4025 -86.4778 288° West 381 438 19,400 -1,560 Descending Chicago Center
02:18PM 41.4325 -86.6083 287° West 370 426 17,800 -1,500 Descending Chicago Center
02:20PM 41.4667 -86.7528 288° West 375 432 16,400 -1,500 Descending Chicago Center
02:21PM 41.4972 -86.8817 288° West 370 426 14,800 -1,500 Descending Chicago Center
02:22PM 41.5258 -87.0064 287° West 357 411 13,300 -1,380 Descending Chicago Center
02:23PM 41.5528 -87.1236 287° West 337 388 12,000 -1,020 Descending Chicago Center
02:24PM 41.5872 -87.2556 289° West 317 365 11,200 -1,020 Descending Chicago Center
02:25PM 41.6442 -87.3294 316° Northwest 287 330 10,000 -1,320 Descending Chicago Center
02:26PM 41.6944 -87.3942 316° Northwest 260 299 8,500 -1,020 Descending Chicago Center
02:27PM 41.7344 -87.4725 304° West 261 300 8,000 -660 Descending Chicago Center
02:28PM 41.7778 -87.5700 301° West 258 297 7,200 -540 Descending Chicago Center
02:29PM 41.8150 -87.6500 302° West 257 296 7,000 -120 Descending Chicago Center
02:30PM 41.8344 -87.7383 286° West 253 291 7,000  Level Chicago Center
02:31PM 41.8522 -87.8308 284° West 256 295 7,000  Level Chicago Center
02:32PM 41.8694 -87.9217 284° West 255 293 7,000  Level Chicago Center
02:33PM 41.8853 -88.0308 281° West 255 293 7,000 -600 Level Chicago Center
02:34PM 41.8833 -88.1167 268° West 246 283 5,900 -1,080 Descending Chicago TRACON
02:35PM 41.8833 -88.2000 270° West 247 284 5,000 -480 Descending Chicago TRACON
02:36PM 41.8833 -88.3000 270° West 245 282 5,000  Level Chicago TRACON
02:37PM 41.8817 -88.3975 269° West 249 287 5,000  Level Chicago Center
02:38PM 41.9317 -88.4503 322° Northwest 249 287 5,000  Level Chicago Center
02:39PM 41.9614 -88.3639 65° Northeast 255 293 5,000  Level Chicago Center
02:40PM 41.9636 -88.2750 88° East 245 282 5,000 -180 Level Chicago Center
02:41PM 41.9644 -88.1978 89° East 225 259 4,700 -720 Descending Chicago Center
02:42PM 41.9644 -88.1258 90° East 209 241 3,600 -1,140 Descending Chicago Center
02:43PM 41.9667 -88.0667 87° East 177 204 2,800 -1,020 Descending Chicago TRACON
02:44PM 41.9667 -88.0167 90° East 157 181 1,900 -900 Descending Chicago TRACON